Flight Track Log - Related Links

Times and Time Zones

All times are in EDT time to prevent confusion due to time zone crossing. See the JBU56 flight status page for this flight to view local times or setup timezone preferences in your user account.

Time Position Orientation Groundspeed Altitude Reporting Facility
EDT Latitude Longitude Course Direction KTS MPH feet Rate Location/Type
Tue 09:08:04 AM 38.9833 -77.5333 90° East 177 204 2,700  Level Potomac TRACON
Tue 09:09:04 AM 39.0167 -77.5667 322° Northwest 218 251 5,100 2,450 Climbing Potomac TRACON
Tue 09:10:00 AM 39.1034 -76.4766 74° East  Level FlightAware Approximate
Tue 09:10:04 AM 39.1000 -77.5667 360° North 254 292 7,600  Level Potomac TRACON
Tue 09:11:00 AM 39.1167 -76.3858 90° East  Level FlightAware Approximate
Tue 09:11:55 AM 39.1539 -77.4064 67° East 291 335 9,900  Level Washington Center
Tue 09:12:00 AM 39.1339 -76.2971 76° East  Level FlightAware Approximate
Tue 09:12:53 AM 39.1661 -77.2861 82° East 313 360 10,000  Level Washington Center
Tue 09:13:00 AM 39.1500 -76.2066 90° East  Level FlightAware Approximate
Tue 09:13:54 AM 39.1406 -77.1733 106° East 313 360 10,100  Level Washington Center
Tue 09:14:55 AM 39.1131 -77.0550 107° East 324 373 12,100 2,182 Climbing Washington Center
Tue 09:15:55 AM 39.0997 -76.9289 98° East 338 389 14,500 2,350 Climbing Washington Center
Tue 09:16:55 AM 39.1094 -76.7928 85° East 351 404 16,800 2,250 Climbing Washington Center
Tue 09:17:55 AM 39.1192 -76.6564 85° East 366 421 19,000 2,000 Climbing Washington Center
Tue 09:18:55 AM 39.1286 -76.5119 85° East 381 438 20,800 1,627 Climbing Washington Center
Tue 09:19:53 AM 39.1403 -76.3650 84° East 401 461 22,200 1,109 Climbing Washington Center
Tue 09:20:54 AM 39.1536 -76.2100 84° East 415 478 23,000 443 Climbing Washington Center
Tue 09:21:55 AM 39.1708 -76.0708 81° East 435 501 23,100 992 Climbing Washington Center
Tue 09:22:55 AM 39.1900 -75.9183 81° East 435 501 25,000 1,627 Climbing Washington Center
Tue 09:23:53 AM 39.2611 -75.7928 54° Northeast 421 484 26,300 1,109 Climbing Washington Center
Tue 09:24:54 AM 39.3508 -75.6722 46° Northeast 437 503 27,200 934 Climbing Washington Center
Tue 09:25:55 AM 39.4469 -75.5539 44° Northeast 450 518 28,200 800 Climbing Washington Center
Tue 09:26:54 AM 39.5425 -75.4275 46° Northeast 474 545 28,800 958 Climbing Washington Center
Tue 09:27:54 AM 39.6422 -75.2978 45° Northeast 487 560 30,100 978 Climbing Washington Center
Tue 09:29:09 AM 39.7578 -75.1319 48° Northeast 502 578 31,000 409 Climbing New York Center
Tue 09:30:06 AM 39.8525 -74.9944 48° Northeast 508 585 31,000  Level New York Center
Tue 09:31:08 AM 39.9467 -74.8622 47° Northeast 508 585 31,000  Level New York Center
Tue 09:32:08 AM 40.0411 -74.7239 48° Northeast 502 578 31,000  Level New York Center
Tue 09:33:08 AM 40.1422 -74.5669 50° Northeast 502 578 31,000  Level New York Center
Tue 09:34:09 AM 40.2361 -74.4253 49° Northeast 507 583 31,000 -756 Level New York Center
Tue 09:35:07 AM 40.3261 -74.2803 51° Northeast 507 583 29,500 -1,525 Descending New York Center
Tue 09:36:07 AM 40.4200 -74.1350 50° Northeast 512 589 28,000 -1,537 Descending New York Center
Tue 09:37:08 AM 40.5072 -73.9919 51° Northeast 512 589 26,400 -1,405 Descending New York Center
Tue 09:38:45 AM 40.6461 -73.7750 50° Northeast 521 600 24,300 -917 Descending Boston Center
Tue 09:39:45 AM 40.7161 -73.6667 50° Northeast 503 579 24,000 -150 Descending Boston Center
Tue 09:40:45 AM 40.8200 -73.4986 51° Northeast 490 564 24,000  Level Boston Center
Tue 09:41:45 AM 40.9067 -73.3628 50° Northeast 490 564 24,000 -500 Level Boston Center
Tue 09:42:45 AM 41.0075 -73.2211 47° Northeast 485 558 23,000 -500 Descending Boston Center
Tue 09:43:45 AM 41.0961 -73.0900 48° Northeast 479 551 23,000  Level Boston Center
Tue 09:44:45 AM 41.1675 -72.9447 57° Northeast 474 545 23,000  Level Boston Center
Tue 09:45:45 AM 41.2267 -72.7878 63° Northeast 474 545 23,000  Level Boston Center
Tue 09:46:45 AM 41.2894 -72.6308 62° Northeast 469 540 23,000  Level Boston Center
Tue 09:47:45 AM 41.3439 -72.4897 63° Northeast 472 543 23,000  Level Boston Center
Tue 09:48:45 AM 41.4083 -72.3156 64° Northeast 472 543 23,000  Level Boston Center
Tue 09:49:45 AM 41.4706 -72.1547 63° Northeast 472 543 23,000 -200 Level Boston Center
Tue 09:50:45 AM 41.5283 -72.0019 63° Northeast 472 543 22,600 -1,450 Descending Boston Center
Tue 09:51:45 AM 41.5861 -71.8461 64° Northeast 472 543 20,100 -2,600 Descending Boston Center
Tue 09:52:45 AM 41.6436 -71.6983 62° Northeast 462 532 17,400 -1,909 Descending Boston Center
Tue 09:53:57 AM 41.6906 -71.5672 64° Northeast 442 509 15,900 -2,227 Descending Boston Center
Tue 09:54:57 AM 41.7536 -71.3994 63° Northeast 395 455 12,500 -2,000 Descending Boston Center
Tue 09:55:57 AM 41.8003 -71.2733 64° Northeast 375 432 11,900 -650 Descending Boston Center
Tue 09:56:57 AM 41.8450 -71.1525 64° Northeast 363 418 11,200 -696 Descending Boston Center
Tue 09:57:49 AM 41.9000 -71.0667 49° Northeast 358 412 10,600 -1,125 Descending KA90
Tue 09:58:49 AM 41.9667 -70.9667 48° Northeast 328 377 9,100 -1,650 Descending KA90
Tue 09:59:49 AM 42.0333 -70.9000 37° Northeast 312 359 7,300 -1,900 Descending KA90
Tue 10:00:49 AM 42.1167 -70.8667 17° North 301 346 5,300 -1,313 Descending KA90
Tue 10:01:57 AM 42.1872 -70.8569 North 283 326 4,500 -891 Descending Boston Center
Tue 10:02:57 AM 42.2519 -70.8639 355° North 221 254 3,400 -1,286 Descending Boston Center
Tue 10:03:49 AM 42.2833 -70.9000 320° Northwest 174 200 2,100 -1,271 Descending KA90
Tue 10:04:55 AM 42.3167 -70.9500 312° West 172 198 900 -1,091 Descending KA90

Login

Don't have an account? Register now (free) for customized features, flight alerts, and more!